AEST,Max TemperatureF,Mean TemperatureF,Min TemperatureF,Max Dew PointF,MeanDew PointF,Min DewpointF,Max Humidity, Mean Humidity, Min Humidity, Max Sea Level PressureIn, Mean Sea Level PressureIn, Min Sea Level PressureIn, Max VisibilityMiles, Mean VisibilityMiles, Min VisibilityMiles, Max Wind SpeedMPH, Mean Wind SpeedMPH, Max Gust SpeedMPH,PrecipitationIn, CloudCover, Events, WindDirDegrees
2011-9-1,82,76,69,68,66,64,88,75,54,30.04,30.01,29.95,6,6,6,23,12,,0.00,3,Rain,158
2011-9-2,80,74,69,68,64,59,88,74,51,30.06,30.02,29.98,6,6,6,22,13,,0.00,3,Rain,155
2011-9-3,82,75,68,66,62,57,94,71,47,30.09,30.05,30.01,6,6,3,22,14,,0.00,4,Rain,160
2011-9-4,73,70,66,70,66,64,94,90,78,30.12,30.07,30.04,6,4,2,16,12,,0.00,6,Rain,174
2011-9-5,77,72,66,64,62,55,94,77,47,30.12,30.07,30.04,6,6,3,21,13,,0.00,5,Rain,160
2011-9-6,80,72,64,63,60,55,88,67,44,30.06,30.02,29.95,6,6,6,18,12,28,0.00,1,,156
2011-9-7,80,71,62,61,58,52,88,65,37,30.04,30.00,29.92,6,6,6,18,11,,0.00,3,,151
2011-9-8,82,71,60,63,58,52,88,67,39,30.04,29.98,29.92,6,6,6,15,11,,0.00,5,,131
2011-9-9,80,70,60,66,62,59,100,77,51,30.01,29.96,29.86,6,6,6,10,4,,0.00,3,,360
2011-9-10,77,68,59,66,49,39,88,50,27,30.06,30.00,29.95,6,6,6,20,10,,0.00,3,,156
2011-9-11,78,66,55,55,51,46,88,59,32,30.06,30.03,29.98,6,6,6,18,8,,0.00,5,,157
2011-9-12,78,68,57,55,49,39,82,53,26,30.12,30.07,30.01,6,6,6,20,12,,0.00,4,,147
2011-9-13,80,72,64,55,52,46,64,51,39,30.15,30.11,30.06,6,6,6,28,15,33,0.00,3,Rain,149
2011-9-14,80,72,64,57,54,48,68,55,34,30.18,30.12,30.06,6,6,6,25,15,,0.00,2,,147
2011-9-15,80,74,69,63,59,54,78,63,39,30.15,30.08,30.01,6,6,6,22,15,,0.00,3,,154
2011-9-16,80,74,68,64,60,55,88,67,44,30.09,30.05,29.98,6,6,4,23,12,,0.00,3,Rain,156
2011-9-17,80,70,60,59,55,50,88,59,36,30.06,30.03,29.95,6,6,6,22,13,,0.00,1,,141
2011-9-18,82,73,64,63,56,48,83,58,32,30.06,30.03,29.98,6,6,6,22,12,29,0.00,2,,146
2011-9-19,84,74,64,64,60,57,88,66,40,30.06,30.01,29.95,6,6,6,15,10,,0.00,1,,146
2011-9-20,80,73,66,66,64,63,88,71,58,30.04,29.96,29.89,6,6,6,15,7,,0.00,4,,128
2011-9-21,84,78,71,66,64,61,83,68,45,30.04,29.96,29.89,6,6,6,15,8,,0.00,3,,143
2011-9-22,84,75,66,66,62,59,88,67,42,30.06,30.02,29.98,6,6,6,21,13,,0.00,1,,142
2011-9-23,82,76,71,66,63,61,83,67,48,30.06,30.02,29.95,6,6,6,20,12,,0.00,3,,149
2011-9-24,82,75,68,66,62,54,83,67,39,30.04,29.99,29.92,6,6,6,20,12,,0.00,2,,152
2011-9-25,84,73,62,66,56,46,94,62,27,30.01,29.96,29.89,6,6,6,18,10,,0.00,2,,137
2011-9-26,80,70,59,66,62,57,100,77,54,30.01,29.94,29.86,6,6,6,10,3,,0.00,1,,20
2011-9-27,84,73,62,66,63,57,100,70,45,30.01,29.95,29.89,6,6,6,15,6,,0.00,1,,133
2011-9-28,84,76,69,66,63,59,83,67,45,30.01,29.96,29.89,6,6,6,16,9,,0.00,2,,135
2011-9-29,80,72,64,68,65,63,94,77,54,29.98,29.90,29.80,6,6,6,12,4,,0.00,2,,37
2011-9-30,84,78,71,72,69,64,89,76,54,29.89,29.84,29.74,6,6,6,15,7,,0.00,3,,317